You are listening to:
RJTT Del/Twr/TCA/Gnd - Tokyo, Japan

RJTT 082130Z 02007KT 9999 FEW030 BKN045 08/02 Q1022 NOSIG RMK 1CU030 6SC045 A3018

If stream doesn't start automatically press the play button
If stream stops then reload player then press play